Time;durP1;ratioP1;P1;durP2;ratioP2;P2;SDS_P1;SDS_P2;PMS_P1;PMS_P2;Temp;Humidity;BMP_temperature;BMP_pressure;BME280_temperature;BME280_humidity;BME280_pressure;Samples;Min_cycle;Max_cycle;Signal;HPM_P1;HPM_P2
2023/04/01 00:01:00;;;;;;;1.87;0.20;;;;;;;;;;4987556;28;20065;-77
2023/04/01 00:03:27;;;;;;;1.63;0.33;;;;;;;;;;4990281;28;20065;-76
2023/04/01 00:05:54;;;;;;;1.70;0.30;;;;;;;;;;4988839;28;20040;-76
2023/04/01 00:08:23;;;;;;;2.40;0.30;;;;;;;;;;5008549;28;20065;-76
2023/04/01 00:10:49;;;;;;;1.63;0.50;;;;;;;;;;4988134;28;20029;-77
2023/04/01 00:13:15;;;;;;;2.00;0.20;;;;;;;;;;5005840;28;20083;-77
2023/04/01 00:15:41;;;;;;;1.70;0.30;;;;;;;;;;4985269;28;20034;-76
2023/04/01 00:18:08;;;;;;;3.47;0.87;;;;;;;;;;4989323;28;20046;-76
2023/04/01 00:20:34;;;;;;;2.00;0.37;;;;;;;;;;4991741;28;20328;-77
2023/04/01 00:23:00;;;;;;;2.43;0.40;;;;;;;;;;4989073;28;20044;-76
2023/04/01 00:25:29;;;;;;;2.20;0.50;;;;;;;;;;4991273;28;20109;-77
2023/04/01 00:27:55;;;;;;;1.10;0.30;;;;;;;;;;4986179;28;20029;-76
2023/04/01 00:30:21;;;;;;;3.23;0.20;;;;;;;;;;4985155;28;20037;-76
2023/04/01 00:32:47;;;;;;;2.97;0.30;;;;;;;;;;4990382;28;20509;-77
2023/04/01 00:35:13;;;;;;;2.53;0.30;;;;;;;;;;4997653;28;20099;-77
2023/04/01 00:37:39;;;;;;;2.50;0.40;;;;;;;;;;4986202;28;20381;-76
2023/04/01 00:40:06;;;;;;;1.20;0.27;;;;;;;;;;4987653;28;20030;-77
2023/04/01 00:42:32;;;;;;;3.80;0.40;;;;;;;;;;5006970;28;20062;-76
2023/04/01 00:45:18;;;;;;;0.97;0.30;;;;;;;;;;4987427;28;20358;-77
2023/04/01 00:47:44;;;;;;;0.93;0.30;;;;;;;;;;4986598;28;20050;-76
2023/04/01 00:50:12;;;;;;;3.47;0.37;;;;;;;;;;4986448;28;20352;-75
2023/04/01 00:52:38;;;;;;;0.77;0.20;;;;;;;;;;4988880;28;20026;-77
2023/04/01 00:55:05;;;;;;;0.87;0.37;;;;;;;;;;4992928;28;20447;-77
2023/04/01 00:57:33;;;;;;;1.43;0.30;;;;;;;;;;4989674;28;20463;-76
2023/04/01 00:59:59;;;;;;;1.73;0.20;;;;;;;;;;5005849;28;20037;-77
2023/04/01 01:02:28;;;;;;;0.87;0.40;;;;;;;;;;5002450;28;20030;-77
2023/04/01 01:04:54;;;;;;;1.40;0.30;;;;;;;;;;4985211;28;20105;-76
2023/04/01 01:07:23;;;;;;;2.23;0.40;;;;;;;;;;4985165;28;20029;-76
2023/04/01 01:09:52;;;;;;;1.67;0.40;;;;;;;;;;4989556;28;20026;-76
2023/04/01 01:12:21;;;;;;;3.67;0.30;;;;;;;;;;4995252;28;20030;-77
2023/04/01 01:14:47;;;;;;;2.90;0.27;;;;;;;;;;4985609;28;20035;-75
2023/04/01 01:17:32;;;;;;;0.40;0.10;;;;;;;;;;4990533;28;20108;-76
2023/04/01 01:20:01;;;;;;;0.90;0.20;;;;;;;;;;4992900;28;20022;-76
2023/04/01 01:22:46;;;;;;;1.07;0.20;;;;;;;;;;4987038;28;20060;-76
2023/04/01 01:25:31;;;;;;;0.60;0.17;;;;;;;;;;5006216;28;20033;-75
2023/04/01 01:28:23;;;;;;;0.73;0.10;;;;;;;;;;5005506;28;20533;-76
2023/04/01 01:30:55;;;;;;;2.72;0.17;;;;;;;;;;4985775;28;21781;-76
2023/04/01 01:33:32;;;;;;;1.27;0.20;;;;;;;;;;4984772;28;20832;-76
2023/04/01 01:36:02;;;;;;;0.63;0.20;;;;;;;;;;4985696;28;20026;-76
2023/04/01 01:38:32;;;;;;;1.53;0.40;;;;;;;;;;5001723;28;20030;-76
2023/04/01 01:40:59;;;;;;;0.77;0.20;;;;;;;;;;5004338;28;20026;-75
2023/04/01 01:43:26;;;;;;;1.60;0.27;;;;;;;;;;4985491;28;20055;-76
2023/04/01 01:45:57;;;;;;;2.67;0.23;;;;;;;;;;4989294;28;20025;-76
2023/04/01 01:48:24;;;;;;;2.23;0.40;;;;;;;;;;5007271;28;20026;-75
2023/04/01 01:50:51;;;;;;;2.43;0.60;;;;;;;;;;4988416;28;20034;-76
2023/04/01 01:53:17;;;;;;;2.27;0.30;;;;;;;;;;4992766;28;20034;-75
2023/04/01 01:55:45;;;;;;;0.50;0.23;;;;;;;;;;4987640;28;20034;-76
2023/04/01 01:58:16;;;;;;;1.23;0.23;;;;;;;;;;4989753;28;20038;-75
2023/04/01 02:00:45;;;;;;;1.97;0.30;;;;;;;;;;5007586;28;20037;-75
2023/04/01 02:03:12;;;;;;;2.30;0.20;;;;;;;;;;4992220;28;20029;-76
2023/04/01 02:05:39;;;;;;;1.00;0.30;;;;;;;;;;5005189;28;20085;-75
2023/04/01 02:08:11;;;;;;;3.73;0.30;;;;;;;;;;4988560;28;20714;-75
2023/04/01 02:10:40;;;;;;;0.80;0.20;;;;;;;;;;4987720;28;20030;-76
2023/04/01 02:13:12;;;;;;;1.17;0.30;;;;;;;;;;5002903;28;20368;-76
2023/04/01 02:15:41;;;;;;;0.52;0.10;;;;;;;;;;4991691;28;20033;-76
2023/04/01 02:18:08;;;;;;;0.83;0.20;;;;;;;;;;4987636;28;20075;-76
2023/04/01 02:20:35;;;;;;;2.00;0.30;;;;;;;;;;5006255;28;20043;-76
2023/04/01 02:23:02;;;;;;;0.53;0.20;;;;;;;;;;4995829;28;20111;-76
2023/04/01 02:25:34;;;;;;;0.40;0.20;;;;;;;;;;4994942;28;20040;-75
2023/04/01 02:28:00;;;;;;;1.35;0.38;;;;;;;;;;4990308;28;20032;-74
2023/04/01 02:30:31;;;;;;;2.47;0.23;;;;;;;;;;4992634;28;20026;-75
2023/04/01 02:32:57;;;;;;;3.40;0.30;;;;;;;;;;4995665;28;20048;-75
2023/04/01 02:35:24;;;;;;;1.10;0.40;;;;;;;;;;5009569;28;20534;-74
2023/04/01 02:37:50;;;;;;;1.07;0.30;;;;;;;;;;4992570;28;20022;-75
2023/04/01 02:40:17;;;;;;;0.70;0.20;;;;;;;;;;4986433;28;20049;-75
2023/04/01 02:42:43;;;;;;;2.57;0.40;;;;;;;;;;5007685;28;20030;-76
2023/04/01 02:45:09;;;;;;;1.83;0.40;;;;;;;;;;4989246;28;20493;-74
2023/04/01 02:47:36;;;;;;;1.27;0.30;;;;;;;;;;5007223;28;20109;-75
2023/04/01 02:50:02;;;;;;;1.70;0.20;;;;;;;;;;4995268;28;20136;-78
2023/04/01 02:52:29;;;;;;;2.83;0.33;;;;;;;;;;4987751;28;20101;-75
2023/04/01 02:54:55;;;;;;;5.07;0.70;;;;;;;;;;4990249;28;20026;-75
2023/04/01 02:57:22;;;;;;;2.73;0.80;;;;;;;;;;4990252;28;20112;-75
2023/04/01 02:59:48;;;;;;;3.13;0.50;;;;;;;;;;4989001;28;20124;-74
2023/04/01 03:02:14;;;;;;;0.80;0.20;;;;;;;;;;4991471;28;20041;-75
2023/04/01 03:04:40;;;;;;;2.53;0.53;;;;;;;;;;4989950;28;20034;-75
2023/04/01 03:07:12;;;;;;;1.30;0.10;;;;;;;;;;4995052;28;20092;-75
2023/04/01 03:09:38;;;;;;;1.07;0.20;;;;;;;;;;4990263;28;20034;-75
2023/04/01 03:12:04;;;;;;;0.73;0.20;;;;;;;;;;5007317;28;20065;-74
2023/04/01 03:14:30;;;;;;;0.80;0.20;;;;;;;;;;4997342;28;20038;-75
2023/04/01 03:16:56;;;;;;;1.17;0.10;;;;;;;;;;4998428;28;20045;-75
2023/04/01 03:19:22;;;;;;;0.30;0.10;;;;;;;;;;5008194;28;20109;-75
2023/04/01 03:21:48;;;;;;;1.33;0.20;;;;;;;;;;4993695;28;20125;-74
2023/04/01 03:24:14;;;;;;;0.43;0.17;;;;;;;;;;5007921;28;20451;-75
2023/04/01 03:26:40;;;;;;;2.10;0.20;;;;;;;;;;5008039;28;20057;-75
2023/04/01 03:29:06;;;;;;;1.37;0.20;;;;;;;;;;4993961;28;20084;-75
2023/04/01 03:31:32;;;;;;;4.80;0.40;;;;;;;;;;4987905;28;20128;-74
2023/04/01 03:34:00;;;;;;;0.57;0.13;;;;;;;;;;4992095;28;20352;-75
2023/04/01 03:36:26;;;;;;;1.53;0.20;;;;;;;;;;5007443;28;20027;-75
2023/04/01 03:38:52;;;;;;;0.60;0.30;;;;;;;;;;5006642;28;20061;-75
2023/04/01 03:41:19;;;;;;;2.50;0.30;;;;;;;;;;4988444;28;20069;-75
2023/04/01 03:43:47;;;;;;;0.40;0.20;;;;;;;;;;4997046;28;20065;-75
2023/04/01 03:46:17;;;;;;;0.93;0.13;;;;;;;;;;4989442;28;20038;-75
2023/04/01 03:48:46;;;;;;;1.90;0.20;;;;;;;;;;5007390;28;20037;-75
2023/04/01 03:51:12;;;;;;;2.20;0.20;;;;;;;;;;5007399;28;20383;-74
2023/04/01 03:53:37;;;;;;;0.67;0.20;;;;;;;;;;4993774;28;20117;-75
2023/04/01 03:56:05;;;;;;;1.17;0.20;;;;;;;;;;4985883;28;20114;-75
2023/04/01 03:58:33;;;;;;;0.67;0.20;;;;;;;;;;4990823;28;20467;-75
2023/04/01 04:00:59;;;;;;;0.40;0.13;;;;;;;;;;4997858;28;20028;-75
2023/04/01 04:03:26;;;;;;;0.80;0.10;;;;;;;;;;4993194;28;20446;-75
2023/04/01 04:05:52;;;;;;;0.63;0.20;;;;;;;;;;4989991;28;20025;-76
2023/04/01 04:08:18;;;;;;;1.30;0.10;;;;;;;;;;4996025;28;20018;-75
2023/04/01 04:10:44;;;;;;;0.73;0.20;;;;;;;;;;5006417;28;20029;-76
2023/04/01 04:13:10;;;;;;;0.10;0.10;;;;;;;;;;4987532;28;20153;-75
2023/04/01 04:15:36;;;;;;;1.90;0.20;;;;;;;;;;4992953;28;20125;-75
2023/04/01 04:18:04;;;;;;;0.60;0.10;;;;;;;;;;5007239;28;20036;-76
2023/04/01 04:20:30;;;;;;;0.37;0.10;;;;;;;;;;4990398;28;20041;-76
2023/04/01 04:22:56;;;;;;;0.20;0.10;;;;;;;;;;4991382;28;20034;-76
2023/04/01 04:25:22;;;;;;;1.23;0.20;;;;;;;;;;4987319;28;20036;-75
2023/04/01 04:27:49;;;;;;;0.67;0.10;;;;;;;;;;4991998;28;20442;-76
2023/04/01 04:30:15;;;;;;;1.30;0.67;;;;;;;;;;4996673;28;20162;-75
2023/04/01 04:32:41;;;;;;;0.40;0.20;;;;;;;;;;5006077;28;20045;-75
2023/04/01 04:35:08;;;;;;;1.60;0.20;;;;;;;;;;4996128;28;20425;-76
2023/04/01 04:37:34;;;;;;;0.83;0.10;;;;;;;;;;4992310;28;20048;-76
2023/04/01 04:40:00;;;;;;;2.77;0.30;;;;;;;;;;5004773;28;20429;-76
2023/04/01 04:42:26;;;;;;;1.77;0.10;;;;;;;;;;4992509;28;20390;-75
2023/04/01 04:44:52;;;;;;;0.83;0.20;;;;;;;;;;4990898;28;20579;-76
2023/04/01 04:47:18;;;;;;;1.23;0.10;;;;;;;;;;4984382;28;20117;-76
2023/04/01 04:49:46;;;;;;;0.93;0.20;;;;;;;;;;4991753;28;20040;-76
2023/04/01 04:52:14;;;;;;;1.43;0.20;;;;;;;;;;4990599;28;20037;-76
2023/04/01 04:54:40;;;;;;;2.70;0.20;;;;;;;;;;4997370;28;20061;-76
2023/04/01 04:57:08;;;;;;;1.23;0.50;;;;;;;;;;5005853;28;20061;-76
2023/04/01 04:59:34;;;;;;;1.97;0.60;;;;;;;;;;4985114;28;20693;-76
2023/04/01 05:02:00;;;;;;;1.13;0.10;;;;;;;;;;5006998;28;20030;-75
2023/04/01 05:04:29;;;;;;;2.03;0.37;;;;;;;;;;4988032;28;20547;-74
2023/04/01 05:06:55;;;;;;;2.07;0.33;;;;;;;;;;4998291;28;20026;-76
2023/04/01 05:09:21;;;;;;;0.83;0.20;;;;;;;;;;5011953;28;20387;-74
2023/04/01 05:11:47;;;;;;;3.40;0.60;;;;;;;;;;4990900;28;20338;-76
2023/04/01 05:14:16;;;;;;;1.07;0.20;;;;;;;;;;5006306;28;20637;-76
2023/04/01 05:16:44;;;;;;;2.43;0.83;;;;;;;;;;4986956;28;20034;-76
2023/04/01 05:19:10;;;;;;;1.40;0.20;;;;;;;;;;4984477;28;20368;-75
2023/04/01 05:21:36;;;;;;;2.40;0.30;;;;;;;;;;4992085;28;20624;-75
2023/04/01 05:24:07;;;;;;;2.10;0.30;;;;;;;;;;5002024;28;20037;-76
2023/04/01 05:26:33;;;;;;;0.67;0.30;;;;;;;;;;4986194;28;20037;-76
2023/04/01 05:28:59;;;;;;;0.43;0.20;;;;;;;;;;5006333;28;20030;-76
2023/04/01 05:31:25;;;;;;;3.20;0.30;;;;;;;;;;5005903;28;21013;-76
2023/04/01 05:33:53;;;;;;;1.27;0.30;;;;;;;;;;4984876;28;20116;-75
2023/04/01 05:36:19;;;;;;;0.40;0.30;;;;;;;;;;4994296;28;20491;-74
2023/04/01 05:38:46;;;;;;;1.10;0.50;;;;;;;;;;4988575;28;20069;-76
2023/04/01 05:41:12;;;;;;;5.40;0.83;;;;;;;;;;4990733;28;20025;-76
2023/04/01 05:43:38;;;;;;;3.00;0.60;;;;;;;;;;4991847;28;20955;-75
2023/04/01 05:46:04;;;;;;;2.13;0.50;;;;;;;;;;5006184;28;20809;-75
2023/04/01 05:48:30;;;;;;;2.23;0.40;;;;;;;;;;4987273;28;20390;-75
2023/04/01 05:50:56;;;;;;;0.87;0.50;;;;;;;;;;4989196;28;20046;-74
2023/04/01 05:53:22;;;;;;;1.10;0.40;;;;;;;;;;5006650;28;20061;-76
2023/04/01 05:55:48;;;;;;;2.27;0.50;;;;;;;;;;4986082;28;20037;-76
2023/04/01 05:58:14;;;;;;;1.63;0.50;;;;;;;;;;4994249;28;20465;-76
2023/04/01 06:00:40;;;;;;;1.60;0.40;;;;;;;;;;4991199;28;20046;-76
2023/04/01 06:03:06;;;;;;;1.97;0.53;;;;;;;;;;4994486;28;20042;-76
2023/04/01 06:05:38;;;;;;;2.33;0.50;;;;;;;;;;4995268;28;20022;-74
2023/04/01 06:08:12;;;;;;;1.58;0.50;;;;;;;;;;5008535;28;20045;-76
2023/04/01 06:10:49;;;;;;;1.63;0.50;;;;;;;;;;4989209;28;20026;-76
2023/04/01 06:13:33;;;;;;;1.30;0.63;;;;;;;;;;4992607;28;20026;-76
2023/04/01 06:16:11;;;;;;;2.40;0.60;;;;;;;;;;4991383;28;20030;-75
2023/04/01 06:18:47;;;;;;;1.97;0.80;;;;;;;;;;5008456;28;20030;-76
2023/04/01 06:21:31;;;;;;;1.33;0.60;;;;;;;;;;4992957;28;20022;-75
2023/04/01 06:24:16;;;;;;;0.87;0.50;;;;;;;;;;5009459;28;20048;-75
2023/04/01 06:27:03;;;;;;;2.60;0.67;;;;;;;;;;5006869;28;20111;-75
2023/04/01 06:29:29;;;;;;;3.50;1.00;;;;;;;;;;5009605;28;20034;-75
2023/04/01 06:32:14;;;;;;;1.60;0.80;;;;;;;;;;4991634;28;20038;-76
2023/04/01 06:34:50;;;;;;;2.87;0.70;;;;;;;;;;4996877;28;20070;-76
2023/04/01 06:37:35;;;;;;;4.77;0.70;;;;;;;;;;5007730;28;20034;-76
2023/04/01 06:40:25;;;;;;;1.03;0.67;;;;;;;;;;4994231;28;20026;-75
2023/04/01 06:42:57;;;;;;;2.23;0.90;;;;;;;;;;5010559;28;20034;-75
2023/04/01 06:45:23;;;;;;;0.85;0.50;;;;;;;;;;5008869;28;20034;-76
2023/04/01 06:48:08;;;;;;;1.60;0.97;;;;;;;;;;4991918;28;20129;-75
2023/04/01 06:50:54;;;;;;;2.00;1.00;;;;;;;;;;5007929;28;20030;-75
2023/04/01 06:53:32;;;;;;;1.33;0.90;;;;;;;;;;5008252;28;20664;-75
2023/04/01 06:56:06;;;;;;;2.00;1.00;;;;;;;;;;4988068;28;20038;-76
2023/04/01 06:58:36;;;;;;;4.10;0.90;;;;;;;;;;4990703;28;20042;-75
2023/04/01 07:01:07;;;;;;;3.77;1.27;;;;;;;;;;4994479;28;20038;-74
2023/04/01 07:03:36;;;;;;;1.60;0.73;;;9.70;99.90;;;;;;4988491;28;20268;-77
2023/04/01 07:06:04;;;;;;;1.37;0.90;;;;;;;;;;4988115;28;20037;-76
2023/04/01 07:08:35;;;;;;;2.73;1.00;;;9.80;99.90;;;;;;4987790;28;20060;-76
2023/04/01 07:11:04;;;;;;;3.00;1.83;;;9.80;99.90;;;;;;4987964;28;20038;-75
2023/04/01 07:13:48;;;;;;;2.93;1.60;;;9.80;99.90;;;;;;5010510;28;20045;-76
2023/04/01 07:16:17;;;;;;;1.83;0.97;;;;;;;;;;4993142;28;20037;-75
2023/04/01 07:18:50;;;;;;;1.33;0.90;;;;;;;;;;5006753;28;20037;-76
2023/04/01 07:21:35;;;;;;;1.87;1.17;;;9.80;99.90;;;;;;5006974;28;20030;-77
2023/04/01 07:24:05;;;;;;;1.50;0.90;;;;;;;;;;4994988;28;20068;-76
2023/04/01 07:26:31;;;;;;;3.10;1.00;;;9.70;99.90;;;;;;5010315;28;20026;-76
2023/04/01 07:28:57;;;;;;;3.17;1.27;;;;;;;;;;4990559;28;20029;-76
2023/04/01 07:31:42;;;;;;;2.93;0.90;;;;;;;;;;4993867;28;20073;-76
2023/04/01 07:34:38;;;;;;;2.90;1.00;;;;;;;;;;4985913;28;20034;-76
2023/04/01 07:37:13;;;;;;;3.50;1.10;;;;;;;;;;4937285;28;20499;-76
2023/04/01 07:39:42;;;;;;;2.13;1.40;;;;;;;;;;4989553;28;20049;-76
2023/04/01 07:42:24;;;;;;;1.63;1.00;;;;;;;;;;4989223;28;20045;-75
2023/04/01 07:44:59;;;;;;;3.13;1.67;;;;;;;;;;4985397;28;20121;-76
2023/04/01 07:47:35;;;;;;;1.30;1.00;;;;;;;;;;5008012;28;20075;-76
2023/04/01 07:50:12;;;;;;;1.53;1.03;;;;;;;;;;4998855;28;20033;-76
2023/04/01 07:52:56;;;;;;;2.60;1.17;;;;;;;;;;5009369;28;20101;-75
2023/04/01 07:55:58;;;;;;;2.10;0.83;;;;;;;;;;4989315;28;20041;-75
2023/04/01 07:58:24;;;;;;;1.67;1.00;;;;;;;;;;4932333;29;20062;-76
2023/04/01 08:00:56;;;;;;;3.70;1.40;;;;;;;;;;4978688;28;20034;-76
2023/04/01 08:03:36;;;;;;;2.05;1.08;;;;;;;;;;4994203;28;20046;-76
2023/04/01 08:06:20;;;;;;;2.50;0.90;;;;;;;;;;5005022;28;20030;-76
2023/04/01 08:09:05;;;;;;;1.60;0.90;;;;;;;;;;4995398;28;20451;-76
2023/04/01 08:11:50;;;;;;;1.10;0.60;;;;;;;;;;5008361;28;20036;-76
2023/04/01 08:14:22;;;;;;;1.63;0.83;;;;;;;;;;4985369;28;20052;-75
2023/04/01 08:16:48;;;;;;;1.17;0.93;;;;;;;;;;4992618;28;20026;-76
2023/04/01 08:19:14;;;;;;;2.23;0.90;;;;;;;;;;4986455;28;20367;-75
2023/04/01 08:21:46;;;;;;;2.30;0.90;;;;;;;;;;5005641;28;20113;-77
2023/04/01 08:24:32;;;;;;;3.22;0.68;;;;;;;;;;4991287;28;20034;-75
2023/04/01 08:27:00;;;;;;;1.30;0.60;;;;;;;;;;5006570;28;20033;-76
2023/04/01 08:29:41;;;;;;;1.17;0.90;;;;;;;;;;5010623;28;20030;-76
2023/04/01 08:32:11;;;;;;;1.30;0.80;;;;;;;;;;5007084;28;20041;-75
2023/04/01 08:34:38;;;;;;;1.17;0.90;;;;;;;;;;4987551;28;20121;-77
2023/04/01 08:37:11;;;;;;;2.00;0.77;;;;;;;;;;4988274;28;20117;-76
2023/04/01 08:39:50;;;;;;;2.43;1.00;;;;;;;;;;5009441;28;20033;-76
2023/04/01 08:42:29;;;;;;;1.60;0.90;;;;;;;;;;5003181;28;20220;-76
2023/04/01 08:45:00;;;;;;;0.60;0.50;;;;;;;;;;4993159;28;20109;-76
2023/04/01 08:47:45;;;;;;;0.80;0.60;;;;;;;;;;5008604;28;20463;-76
2023/04/01 08:50:17;;;;;;;0.97;0.37;;;;;;;;;;5007086;28;20031;-75
2023/04/01 08:52:49;;;;;;;1.15;1.02;;;;;;;;;;4993605;28;20030;-75
2023/04/01 08:55:15;;;;;;;1.17;0.60;;;;;;;;;;4987193;28;20038;-76
2023/04/01 08:57:49;;;;;;;2.57;0.40;;;;;;;;;;4994515;28;20025;-76
2023/04/01 09:00:39;;;;;;;0.50;0.50;;;;;;;;;;4993551;28;20044;-77
2023/04/01 09:03:11;;;;;;;1.63;0.50;;;;;;;;;;4995490;28;20061;-77
2023/04/01 09:05:40;;;;;;;2.17;0.40;;;;;;;;;;4994737;28;20041;-76
2023/04/01 09:08:24;;;;;;;1.43;0.43;;;;;;;;;;5007516;28;20036;-75
2023/04/01 09:11:02;;;;;;;1.63;0.40;;;;;;;;;;4992499;28;20112;-76
2023/04/01 09:13:47;;;;;;;4.10;0.50;;;;;;;;;;5008436;28;20455;-76
2023/04/01 09:16:17;;;;;;;0.80;0.20;;;;;;;;;;4987369;28;20038;-77
2023/04/01 09:18:55;;;;;;;1.17;0.40;;;;;;;;;;4988707;28;20109;-76
2023/04/01 09:21:24;;;;;;;2.97;0.53;;;;;;;;;;4992566;28;21977;-75
2023/04/01 09:23:58;;;;;;;0.73;0.53;;;;;;;;;;5006783;28;20044;-75
2023/04/01 09:26:34;;;;;;;1.67;0.57;;;;;;;;;;4986772;28;20038;-77
2023/04/01 09:29:09;;;;;;;1.60;0.57;;;;;;;;;;4991647;28;20088;-75
2023/04/01 09:32:00;;;;;;;1.67;0.50;;;;;;;;;;4987064;28;20034;-75
2023/04/01 09:34:37;;;;;;;1.20;0.47;;;;;;;;;;4986558;28;20072;-78
2023/04/01 09:37:23;;;;;;;1.43;0.50;;;;;;;;;;4985766;28;20036;-77
2023/04/01 09:40:02;;;;;;;2.20;0.47;;;;;;;;;;4992152;28;20038;-76
2023/04/01 09:42:34;;;;;;;1.10;0.47;;;;;;;;;;4984895;28;20038;-76
2023/04/01 09:45:02;;;;;;;0.88;0.50;;;;;;;;;;4992426;28;20061;-76
2023/04/01 09:47:50;;;;;;;0.90;0.80;;;;;;;;;;4995501;28;20057;-76
2023/04/01 09:50:25;;;;;;;1.23;0.70;;;;;;;;;;5006081;28;20026;-77
2023/04/01 09:53:14;;;;;;;2.83;1.40;;;;;;;;;;4990838;28;20041;-76
2023/04/01 09:56:04;;;;;;;0.87;0.70;;;;;;;;;;4976055;28;20174;-75
2023/04/01 09:58:36;;;;;;;1.03;0.90;;;;;;;;;;5003123;28;20033;-76
2023/04/01 10:01:06;;;;;;;1.07;0.70;;;;;;;;;;4985483;28;20036;-76
2023/04/01 10:03:32;;;;;;;1.33;0.77;;;;;;;;;;5005548;28;20038;-76
2023/04/01 10:06:04;;;;;;;2.07;0.83;;;;;;;;;;4989291;28;20022;-76
2023/04/01 10:08:33;;;;;;;1.08;0.73;;;;;;;;;;5006695;28;20083;-75
2023/04/01 10:11:18;;;;;;;1.20;0.90;;;;;;;;;;5003599;28;20068;-76
2023/04/01 10:13:50;;;;;;;1.07;0.97;;;;;;;;;;4988959;28;20038;-76
2023/04/01 10:16:35;;;;;;;1.67;1.30;;;;;;;;;;4991732;28;20049;-76
2023/04/01 10:19:04;;;;;;;1.17;0.77;;;;;;;;;;4991228;28;20034;-74
2023/04/01 10:21:39;;;;;;;1.90;0.90;;;;;;;;;;4988329;28;20034;-75
2023/04/01 10:24:28;;;;;;;1.23;0.93;;;;;;;;;;4993540;28;20041;-76
2023/04/01 10:27:09;;;;;;;3.77;0.90;;;;;;;;;;4985051;28;20072;-75
2023/04/01 10:29:53;;;;;;;1.97;1.00;;;;;;;;;;4991284;28;20034;-75
2023/04/01 10:32:32;;;;;;;2.77;1.43;;;;;;;;;;4986602;28;20038;-75
2023/04/01 10:35:19;;;;;;;2.10;1.20;;;;;;;;;;4989133;28;20038;-74
2023/04/01 10:37:52;;;;;;;3.47;1.40;;;;;;;;;;4989915;28;20026;-76
2023/04/01 10:40:53;;;;;;;2.30;1.60;;;10.40;99.90;;;;;;4986171;28;21764;-76
2023/04/01 10:43:42;;;;;;;3.27;1.60;;;;;;;;;;4983694;28;20069;-76
2023/04/01 10:46:27;;;;;;;3.13;1.50;;;;;;;;;;4987929;28;20040;-76
2023/04/01 10:49:12;;;;;;;1.10;0.90;;;;;;;;;;4996573;28;20109;-76
2023/04/01 10:51:59;;;;;;;1.30;1.20;;;;;;;;;;4989494;28;20030;-76
2023/04/01 10:54:45;;;;;;;1.83;1.60;;;;;;;;;;4994460;28;20050;-76
2023/04/01 10:57:35;;;;;;;1.40;1.30;;;;;;;;;;4995506;28;20450;-76
2023/04/01 11:00:24;;;;;;;1.10;1.00;;;;;;;;;;4999246;28;20018;-75
2023/04/01 11:03:10;;;;;;;1.70;1.50;;;;;;;;;;5004404;28;20072;-76
2023/04/01 11:05:42;;;;;;;1.20;1.10;;;;;;;;;;4995510;28;20041;-76
2023/04/01 11:08:27;;;;;;;1.20;1.10;;;;;;;;;;4988478;28;20051;-76
2023/04/01 11:11:03;;;;;;;3.07;1.20;;;;;;;;;;4992987;28;20037;-77
2023/04/01 11:13:32;;;;;;;0.93;0.80;;;;;;;;;;4988305;28;20022;-76
2023/04/01 11:16:04;;;;;;;3.70;0.90;;;;;;;;;;5008831;28;20068;-76
2023/04/01 11:18:45;;;;;;;1.58;0.80;;;;;;;;;;4992822;28;20041;-77
2023/04/01 11:21:11;;;;;;;0.87;0.73;;;;;;;;;;5007831;28;20030;-77
2023/04/01 11:23:51;;;;;;;0.97;0.87;;;;;;;;;;4994220;28;20033;-76
2023/04/01 11:26:29;;;;;;;0.80;0.80;;;;;;;;;;5008239;28;20045;-76
2023/04/01 11:29:13;;;;;;;0.97;0.83;;;;;;;;;;5008554;28;20045;-77
2023/04/01 11:31:43;;;;;;;1.83;0.90;;;;;;;;;;4995975;28;20026;-76
2023/04/01 11:34:27;;;;;;;1.10;0.93;;;;;;;;;;4999586;28;20042;-76
2023/04/01 11:36:53;;;;;;;2.60;1.13;;;;;;;;;;4994980;28;20049;-76
2023/04/01 11:39:25;;;;;;;1.40;0.80;;;;;;;;;;4993980;28;20064;-78
2023/04/01 11:41:57;;;;;;;2.70;0.68;;;;;;;;;;4989737;28;20022;-76
2023/04/01 11:44:26;;;;;;;1.33;0.80;;;;;;;;;;4988366;28;20072;-77
2023/04/01 11:47:11;;;;;;;2.63;0.80;;;;;;;;;;5005902;28;20017;-76
2023/04/01 11:49:47;;;;;;;1.03;0.77;;;;;;;;;;4987429;28;20030;-77
2023/04/01 11:52:19;;;;;;;1.27;0.77;;;;;;;;;;5007441;28;20057;-76
2023/04/01 11:55:06;;;;;;;0.75;0.60;;;11.50;99.90;;;;;;4994375;28;20100;-75
2023/04/01 11:57:50;;;;;;;2.07;1.10;;;11.50;99.90;;;;;;4993437;28;20030;-77
2023/04/01 12:00:39;;;;;;;1.90;0.90;;;11.40;99.90;;;;;;4990850;28;20117;-77
2023/04/01 12:03:24;;;;;;;1.57;1.07;;;;;;;;;;4981726;28;20596;-75
2023/04/01 12:06:09;;;;;;;0.73;0.70;;;;;;;;;;4994898;28;20076;-75
2023/04/01 12:08:56;;;;;;;1.03;0.80;;;;;;;;;;4993359;28;20354;-74
2023/04/01 12:11:30;;;;;;;1.13;0.60;;;;;;;;;;5006499;28;20083;-74
2023/04/01 12:13:59;;;;;;;1.00;0.90;;;;;;;;;;4992855;28;20033;-74
2023/04/01 12:16:38;;;;;;;1.27;0.63;;;;;;;;;;4986131;28;20034;-74
2023/04/01 12:19:11;;;;;;;0.93;0.70;;;;;;;;;;4992838;28;20034;-74
2023/04/01 12:21:59;;;;;;;0.80;0.80;;;;;;;;;;4990206;28;20045;-76
2023/04/01 12:24:41;;;;;;;0.70;0.70;;;;;;;;;;4974122;28;20556;-76
2023/04/01 12:27:26;;;;;;;0.82;0.65;;;;;;;;;;4990201;28;20026;-76
2023/04/01 12:30:10;;;;;;;1.03;0.80;;;;;;;;;;4986136;28;20045;-76
2023/04/01 12:32:43;;;;;;;2.10;0.77;;;;;;;;;;4991294;28;20022;-76
2023/04/01 12:35:20;;;;;;;0.60;0.60;;;;;;;;;;4986979;28;20035;-76
2023/04/01 12:38:05;;;;;;;1.00;0.87;;;;;;;;;;4987673;28;20034;-76
2023/04/01 12:41:01;;;;;;;1.07;0.97;;;;;;;;;;4990205;28;20022;-77
2023/04/01 12:43:27;;;;;;;0.90;0.80;;;;;;;;;;4939528;28;20054;-75
2023/04/01 12:46:11;;;;;;;0.73;0.73;;;;;;;;;;5007250;28;20065;-77
2023/04/01 12:48:50;;;;;;;1.50;1.07;;;;;;;;;;4993169;28;20042;-75
2023/04/01 12:51:22;;;;;;;0.60;0.53;;;;;;;;;;4992630;28;20045;-76
2023/04/01 12:54:07;;;;;;;0.73;0.60;;;;;;;;;;5005197;28;20026;-77
2023/04/01 12:56:39;;;;;;;0.73;0.73;;;;;;;;;;4989629;28;20030;-77
2023/04/01 12:59:08;;;;;;;0.70;0.68;;;;;;;;;;5005236;28;20107;-76
2023/04/01 13:02:00;;;;;;;0.90;0.70;;;;;;;;;;4989117;28;20439;-77
2023/04/01 13:04:44;;;;;;;1.27;0.80;;;;;;;;;;4993641;28;20861;-76
2023/04/01 13:07:11;;;;;;;0.80;0.63;;;;;;;;;;4990335;28;20093;-77
2023/04/01 13:09:43;;;;;;;1.20;1.10;;;;;;;;;;4989671;28;20025;-76
2023/04/01 13:12:09;;;;;;;;;;;;;;;;;;5008961;28;20096;-77
2023/04/01 13:14:54;;;;;;;1.20;1.10;;;;;;;;;;4994021;28;19913;-76
2023/04/01 13:17:27;;;;;;;1.20;0.90;;;;;;;;;;4983611;28;20080;-77
2023/04/01 13:20:07;;;;;;;1.20;1.00;;;;;;;;;;4992989;28;20521;-76
2023/04/01 13:22:52;;;;;;;1.00;0.90;;;;;;;;;;4985636;28;20340;-76
2023/04/01 13:25:27;;;;;;;4.07;1.13;;;;;;;;;;5005932;28;20037;-75
2023/04/01 13:28:16;;;;;;;1.20;1.10;;;;;;;;;;5004953;28;20069;-76
2023/04/01 13:30:53;;;;;;;1.30;1.20;;;;;;;;;;5004902;28;20037;-76
2023/04/01 13:33:38;;;;;;;1.20;1.10;;;;;;;;;;5008182;28;20033;-77
2023/04/01 13:36:13;;;;;;;1.50;1.10;;;;;;;;;;4990547;28;20076;-76
2023/04/01 13:38:39;;;;;;;1.20;1.10;;;;;;;;;;5005200;28;20021;-75
2023/04/01 13:41:25;;;;;;;1.70;1.20;;;;;;;;;;4993150;28;20038;-77
2023/04/01 13:44:10;;;;;;;1.60;1.00;;;;;;;;;;4984986;28;20038;-77
2023/04/01 13:46:39;;;;;;;1.17;1.00;;;;;;;;;;5004039;28;20084;-75
2023/04/01 13:49:17;;;;;;;1.23;1.00;;;;;;;;;;5004945;28;20085;-78
2023/04/01 13:52:02;;;;;;;2.03;1.43;;;;;;;;;;4987777;28;20128;-75
2023/04/01 13:54:46;;;;;;;1.77;1.60;;;;;;;;;;4990980;28;20046;-76
2023/04/01 13:57:22;;;;;;;2.30;1.70;;;;;;;;;;4994160;28;20041;-76
2023/04/01 14:00:06;;;;;;;2.47;1.50;;;;;;;;;;5007590;28;20064;-75
2023/04/01 14:02:41;;;;;;;1.57;1.47;;;;;;;;;;4993150;28;20100;-75
2023/04/01 14:05:24;;;;;;;3.53;1.87;;;;;;;;;;4989216;28;20040;-75
2023/04/01 14:08:04;;;;;;;2.13;1.50;;;;;;;;;;4993473;28;20034;-75
2023/04/01 14:10:36;;;;;;;1.67;1.57;;;;;;;;;;5005838;28;20091;-76
2023/04/01 14:13:02;;;;;;;2.03;1.65;;;;;;;;;;5008950;28;20083;-75
2023/04/01 14:15:35;;;;;;;2.50;2.10;;;;;;;;;;4989517;28;20038;-76
2023/04/01 14:18:26;;;;;;;2.37;1.90;;;;;;;;;;4990170;28;20034;-76
2023/04/01 14:20:51;;;;;;;2.30;1.67;;;;;;;;;;4981079;28;20049;-76
2023/04/01 14:23:36;;;;;;;3.10;2.80;;;;;;;;;;4998494;28;21646;-76
2023/04/01 14:26:08;;;;;;;3.20;2.90;;;;;;;;;;4990559;28;20116;-75
2023/04/01 14:28:34;;;;;;;2.50;2.30;;;;;;;;;;4990059;28;20018;-76
2023/04/01 14:31:00;;;;;;;3.47;2.53;;;;;;;;;;4994935;28;20108;-75
2023/04/01 14:33:29;;;;;;;3.60;2.30;;;;;;;;;;4996461;28;20088;-76
2023/04/01 14:36:05;;;;;;;2.50;2.30;;;;;;;;;;4995740;28;20126;-76
2023/04/01 14:38:55;;;;;;;3.20;2.63;;;;;;;;;;5006801;28;20038;-76
2023/04/01 14:41:29;;;;;;;3.83;3.07;;;;;;;;;;5010016;28;20034;-76
2023/04/01 14:43:54;;;;;;;5.30;3.20;;;;;;;;;;5008310;28;20037;-76
2023/04/01 14:46:28;;;;;;;3.33;2.87;;;;;;;;;;5000500;28;20030;-76
2023/04/01 14:49:02;;;;;;;3.33;3.00;;;;;;;;;;5007475;28;20036;-75
2023/04/01 14:51:28;;;;;;;3.70;3.30;;;;;;;;;;4987020;28;20112;-76
2023/04/01 14:54:05;;;;;;;3.10;2.83;;;;;;;;;;4997485;28;20435;-75
2023/04/01 14:56:40;;;;;;;2.67;1.93;;;;;;;;;;4989266;28;20121;-76
2023/04/01 14:59:21;;;;;;;2.20;2.00;;;;;;;;;;4994616;28;20411;-75
2023/04/01 15:01:47;;;;;;;3.33;2.10;;;;;;;;;;5009238;28;20053;-76
2023/04/01 15:04:13;;;;;;;1.87;1.77;;;;;;;;;;4997761;28;20667;-75
2023/04/01 15:06:42;;;;;;;2.20;1.97;;;;;;;;;;4994014;28;20026;-76
2023/04/01 15:09:30;;;;;;;2.20;2.00;;;;;;;;;;4995651;28;20062;-75
2023/04/01 15:12:05;;;;;;;2.80;1.90;;;;;;;;;;5009207;28;20034;-76
2023/04/01 15:14:45;;;;;;;3.73;2.40;;;;;;;;;;5008602;28;20029;-76
2023/04/01 15:17:18;;;;;;;2.70;2.10;;;;;;;;;;4991546;28;20446;-76